Time;durP1;ratioP1;P1;durP2;ratioP2;P2;SDS_P1;SDS_P2;PMS_P1;PMS_P2;Temp;Humidity;BMP_temperature;BMP_pressure;BME280_temperature;BME280_humidity;BME280_pressure;Samples;Min_cycle;Max_cycle;Signal;HPM_P1;HPM_P2
2021/04/13 00:00:48;;;;;;;6.93;5.78;;;3.20;78.00;;;1.38;77.20;97000.44;5003017;28;20121;-71
2021/04/13 00:03:14;;;;;;;7.03;5.25;;;3.20;78.30;;;1.41;77.67;97000.22;5007849;28;20042;-71
2021/04/13 00:05:43;;;;;;;6.68;5.40;;;3.40;78.20;;;1.44;77.46;97000.00;5009708;28;20409;-72
2021/04/13 00:08:20;;;;;;;6.05;5.15;;;3.30;77.60;;;1.44;77.81;96988.78;5009659;28;20034;-70
2021/04/13 00:11:00;;;;;;;7.90;5.22;;;3.30;77.80;;;1.42;78.00;96993.25;4962855;28;20049;-71
2021/04/13 00:13:25;;;;;;;6.18;5.57;;;3.20;78.30;;;1.41;77.20;97000.22;5006807;28;20048;-75
2021/04/13 00:15:54;;;;;;;7.45;5.80;;;3.20;78.30;;;1.41;77.51;96983.84;5001093;28;20541;-75
2021/04/13 00:18:28;;;;;;;7.47;5.88;;;3.20;78.60;;;1.40;77.88;96982.19;4993027;28;20057;-75
2021/04/13 00:20:58;;;;;;;7.72;5.60;;;3.20;78.50;;;1.40;77.46;96995.16;5008889;28;20038;-75
2021/04/13 00:23:24;;;;;;;7.57;5.80;;;3.20;78.30;;;1.39;77.70;96996.09;4977942;28;20033;-75
2021/04/13 00:26:10;;;;;;;6.30;5.40;;;3.20;78.30;;;1.42;77.63;96995.84;5008773;28;20045;-75
2021/04/13 00:28:45;;;;;;;5.25;4.70;;;3.20;78.10;;;1.42;77.32;97001.03;4977554;28;20030;-75
2021/04/13 00:31:40;;;;;;;6.82;5.50;;;3.20;78.10;;;1.40;77.90;96992.56;4993448;28;20045;-75
2021/04/13 00:34:21;;;;;;;6.50;5.78;;;3.10;78.60;;;1.39;78.26;96996.91;4962950;28;20027;-75
2021/04/13 00:36:51;;;;;;;6.78;5.78;;;3.10;78.50;;;1.37;77.12;96997.97;5024812;28;20042;-75
2021/04/13 00:39:27;;;;;;;6.90;5.97;;;3.10;78.60;;;1.32;77.84;96998.25;4992759;28;20034;-75
2021/04/13 00:41:57;;;;;;;8.18;5.63;;;3.10;78.90;;;1.29;77.48;96995.06;4991865;28;20034;-75
2021/04/13 00:44:23;;;;;;;6.10;5.50;;;2.90;79.00;;;1.27;77.85;96994.34;5009188;28;20026;-75
2021/04/13 00:47:02;;;;;;;6.00;5.20;;;3.00;79.10;;;1.26;77.78;96992.69;4977156;28;20049;-72
2021/04/13 00:49:31;;;;;;;7.15;5.70;;;2.90;78.70;;;1.20;77.95;96992.22;4961337;28;20034;-74
2021/04/13 00:52:34;;;;;;;6.57;5.40;;;2.80;79.10;;;1.20;78.79;97002.56;4992643;28;20030;-74
2021/04/13 00:55:00;;;;;;;7.22;5.32;;;2.90;79.50;;;1.18;77.81;97004.44;4995601;28;20111;-73
2021/04/13 00:57:32;;;;;;;6.90;5.10;;;2.90;79.20;;;1.17;78.09;97002.78;4976121;28;20474;-72
2021/04/13 00:59:58;;;;;;;5.82;4.88;;;2.90;79.10;;;1.17;77.75;97007.97;4992017;28;20030;-72
2021/04/13 01:02:27;;;;;;;6.97;5.55;;;2.90;78.90;;;1.15;77.83;97007.25;4958702;28;20093;-73
2021/04/13 01:05:01;;;;;;;9.02;5.55;;;2.80;79.30;;;1.17;77.61;97012.34;5004164;28;20034;-74
2021/04/13 01:07:52;;;;;;;6.75;5.53;;;2.90;79.10;;;1.19;78.58;96998.34;4993743;28;20022;-74
2021/04/13 01:10:33;;;;;;;5.88;5.28;;;3.00;79.00;;;1.17;77.93;97007.16;5003090;28;20077;-74
2021/04/13 01:13:10;;;;;;;;;;;3.00;79.10;;;1.15;78.90;97006.44;5001713;28;20042;-74
2021/04/13 01:15:51;;;;;;;7.43;5.40;;;3.00;79.40;;;1.13;77.66;97000.50;4994967;28;19924;-74
2021/04/13 01:18:30;;;;;;;8.65;5.80;;;2.90;79.50;;;1.14;78.43;97002.19;5010016;28;20413;-73
2021/04/13 01:21:28;;;;;;;7.25;5.72;;;2.90;79.20;;;1.12;78.65;97004.03;4992051;28;20589;-74
2021/04/13 01:23:58;;;;;;;7.82;5.18;;;2.90;79.10;;;1.10;77.47;96992.94;4992622;28;20041;-74
2021/04/13 01:26:24;;;;;;;6.25;4.88;;;2.90;79.30;;;1.09;77.33;96997.31;5007682;28;20057;-73
2021/04/13 01:28:50;;;;;;;6.72;4.93;;;2.90;79.20;;;1.08;77.55;97003.44;4975257;28;20355;-73
2021/04/13 01:31:43;;;;;;;5.95;5.25;;;2.80;79.30;;;1.09;78.06;97005.09;4976211;28;20460;-74
2021/04/13 01:34:14;;;;;;;6.50;5.57;;;2.80;79.50;;;1.07;78.19;96996.59;4994655;28;20036;-73
2021/04/13 01:36:45;;;;;;;7.25;5.32;;;2.80;79.50;;;1.09;77.98;96999.91;4991563;28;20219;-74
2021/04/13 01:39:18;;;;;;;6.82;5.20;;;2.90;79.50;;;1.11;78.37;97003.22;4977688;28;20038;-74
2021/04/13 01:41:59;;;;;;;6.88;5.50;;;2.90;79.30;;;1.10;78.53;96995.53;4959108;28;20022;-74
2021/04/13 01:44:38;;;;;;;6.90;5.63;;;2.90;79.70;;;1.09;78.38;96997.31;4993797;28;20121;-73
2021/04/13 01:47:04;;;;;;;6.25;5.45;;;2.80;79.70;;;1.09;78.42;96996.47;4959720;28;20044;-73
2021/04/13 01:49:31;;;;;;;6.75;5.70;;;2.80;80.10;;;1.07;78.44;96996.59;4975436;28;20046;-74
2021/04/13 01:51:58;;;;;;;9.48;6.00;;;2.80;80.30;;;1.08;78.47;96997.41;4975514;28;20133;-73
2021/04/13 01:54:24;;;;;;;8.77;5.57;;;2.80;80.00;;;1.08;78.31;96992.25;5008025;28;20516;-74
2021/04/13 01:57:02;;;;;;;8.88;6.03;;;2.80;80.20;;;1.07;79.42;96991.41;4974886;28;20121;-73
2021/04/13 01:59:44;;;;;;;9.88;6.22;;;2.80;80.50;;;1.03;79.56;96997.75;4977326;28;20117;-71
2021/04/13 02:02:27;;;;;;;8.20;6.10;;;2.70;80.70;;;1.02;79.58;96993.50;4970310;28;20366;-73
2021/04/13 02:04:56;;;;;;;6.70;5.85;;;2.70;80.90;;;0.98;78.58;96984.31;5008521;28;20045;-73
2021/04/13 02:07:54;;;;;;;8.05;6.53;;;2.70;81.30;;;0.99;80.26;96993.72;5007821;28;20044;-73
2021/04/13 02:10:31;;;;;;;8.40;7.05;;;2.70;81.30;;;0.96;79.38;96996.53;5007286;28;20049;-73
2021/04/13 02:13:06;;;;;;;7.80;6.72;;;2.70;81.40;;;0.96;79.86;96990.53;4972935;28;20550;-74
2021/04/13 02:15:48;;;;;;;8.18;7.03;;;2.70;81.80;;;0.95;80.56;96992.28;4974514;28;20046;-70
2021/04/13 02:18:23;;;;;;;9.43;6.78;;;2.60;81.90;;;0.91;80.73;96990.84;4984161;28;20049;-74
2021/04/13 02:20:49;;;;;;;8.77;6.72;;;2.60;82.20;;;0.89;79.85;96990.09;4991991;28;20054;-74
2021/04/13 02:23:20;;;;;;;7.80;7.00;;;2.60;82.10;;;0.89;79.95;96990.09;4975270;28;20038;-74
2021/04/13 02:25:47;;;;;;;8.60;6.82;;;2.60;81.90;;;0.88;79.40;96993.63;4991475;28;20508;-74
2021/04/13 02:28:15;;;;;;;8.95;6.57;;;2.60;81.90;;;0.89;80.24;96995.28;4959120;28;20081;-74
2021/04/13 02:30:44;;;;;;;7.60;6.80;;;2.70;81.90;;;0.90;80.11;96991.75;4959152;28;20061;-77
2021/04/13 02:33:36;;;;;;;10.93;7.20;;;2.60;81.70;;;0.86;80.68;96995.50;4991508;28;20464;-74
2021/04/13 02:36:28;;;;;;;8.75;7.43;;;2.50;82.30;;;0.84;81.42;96999.97;5007880;28;20509;-74
2021/04/13 02:38:54;;;;;;;9.43;7.30;;;2.50;82.80;;;0.83;80.00;96982.78;4991140;28;20049;-74
2021/04/13 02:41:55;;;;;;;7.78;6.97;;;2.60;82.50;;;0.86;81.24;96991.16;4974825;28;20041;-74
2021/04/13 02:44:23;;;;;;;9.97;8.03;;;2.60;82.40;;;0.80;80.28;96980.41;4979770;28;20113;-75
2021/04/13 02:46:52;;;;;;;8.65;7.63;;;2.50;82.60;;;0.78;80.44;96990.03;4975512;28;20030;-74
2021/04/13 02:49:19;;;;;;;9.80;7.95;;;2.40;83.10;;;0.74;80.62;96988.59;4974628;28;20045;-74
2021/04/13 02:52:03;;;;;;;9.45;8.30;;;2.40;83.30;;;0.73;81.49;96986.94;4974409;28;20038;-74
2021/04/13 02:54:43;;;;;;;9.35;8.45;;;2.40;83.40;;;0.70;81.65;96976.81;4975357;28;20034;-74
2021/04/13 02:57:39;;;;;;;9.05;8.13;;;2.40;83.30;;;0.66;81.96;96980.53;4975597;28;20065;-73
2021/04/13 03:00:24;;;;;;;10.75;8.85;;;2.30;83.70;;;0.64;82.38;96987.56;5005434;28;20058;-73
2021/04/13 03:02:57;;;;;;;10.48;8.45;;;2.30;83.80;;;0.65;82.15;96989.22;4996366;28;20037;-74
2021/04/13 03:05:26;;;;;;;10.48;8.85;;;2.40;84.00;;;0.64;81.38;96983.22;5011227;28;20124;-74
2021/04/13 03:07:52;;;;;;;10.15;9.18;;;2.40;83.80;;;0.65;81.26;96973.69;4994289;28;20042;-74
2021/04/13 03:10:24;;;;;;;9.90;8.32;;;2.40;83.90;;;0.70;81.68;96987.16;4978508;28;20462;-74
2021/04/13 03:12:51;;;;;;;11.23;9.43;;;2.50;83.60;;;0.69;81.36;96988.94;5007242;28;20035;-74
2021/04/13 03:15:25;;;;;;;10.77;9.23;;;2.50;83.70;;;0.68;82.04;96983.84;4968517;28;20041;-74
2021/04/13 03:17:55;;;;;;;11.70;9.80;;;2.50;84.00;;;0.66;81.54;96981.34;4995346;28;20041;-74
2021/04/13 03:20:27;;;;;;;10.95;9.52;;;2.40;84.00;;;0.68;81.88;96978.66;4994834;28;20038;-75
2021/04/13 03:22:54;;;;;;;13.68;9.73;;;2.50;84.00;;;0.67;81.16;96982.19;4994967;28;20038;-73
2021/04/13 03:25:22;;;;;;;13.32;9.73;;;2.40;84.10;;;0.67;81.51;96982.19;5010753;28;20041;-75
2021/04/13 03:27:48;;;;;;;17.95;10.88;;;2.40;84.00;;;0.61;81.90;96973.91;4993710;28;20111;-74
2021/04/13 03:30:26;;;;;;;13.35;10.13;;;2.40;84.30;;;0.63;83.29;96980.75;5010276;28;20521;-74
2021/04/13 03:32:56;;;;;;;14.27;10.32;;;2.40;84.30;;;0.62;82.17;96977.31;4978467;28;20038;-74
2021/04/13 03:35:23;;;;;;;14.67;11.40;;;2.40;84.30;;;0.60;82.31;96980.03;5010410;28;20091;-75
2021/04/13 03:37:49;;;;;;;13.10;11.10;;;2.40;84.50;;;0.63;81.96;96980.75;5010116;28;20041;-73
2021/04/13 03:40:17;;;;;;;12.45;11.20;;;2.50;84.30;;;0.64;82.01;96975.44;5010565;28;20030;-74
2021/04/13 03:42:42;;;;;;;13.75;11.68;;;2.50;84.30;;;0.64;82.11;96970.28;5009881;28;20030;-72
2021/04/13 03:45:12;;;;;;;13.25;11.65;;;2.50;84.40;;;0.66;82.07;96972.75;5010523;28;20057;-74
2021/04/13 03:47:38;;;;;;;13.88;12.23;;;2.50;84.30;;;0.63;82.33;96971.22;5009827;28;20578;-74
2021/04/13 03:50:17;;;;;;;14.20;12.70;;;2.40;84.50;;;0.60;83.68;96967.06;5009841;28;20076;-74
2021/04/13 03:52:42;;;;;;;15.10;12.88;;;2.40;84.70;;;0.59;82.38;96975.78;4977927;28;20042;-75
2021/04/13 03:55:17;;;;;;;14.63;13.13;;;2.40;84.60;;;0.63;83.44;96967.78;5009865;28;20084;-71
2021/04/13 03:57:42;;;;;;;14.10;12.60;;;2.50;84.70;;;0.63;82.27;96970.38;5008201;28;20044;-74
2021/04/13 04:00:12;;;;;;;15.27;12.88;;;2.50;84.50;;;0.64;82.49;96965.09;5007180;28;20038;-71
2021/04/13 04:02:38;;;;;;;15.57;13.45;;;2.50;84.60;;;0.66;82.61;96967.56;4990469;28;20025;-73
2021/04/13 04:05:18;;;;;;;14.40;12.82;;;2.50;84.50;;;0.70;83.36;96974.22;4993374;28;20568;-74
2021/04/13 04:07:54;;;;;;;15.80;13.73;;;2.60;84.30;;;0.68;82.73;96976.06;4992075;28;20387;-70
2021/04/13 04:10:44;;;;;;;15.45;13.85;;;2.50;84.30;;;0.67;83.60;96982.19;5009841;28;20049;-70
2021/04/13 04:13:17;;;;;;;16.55;14.75;;;2.50;84.60;;;0.67;82.83;96977.00;5024528;28;20038;-70
2021/04/13 04:15:50;;;;;;;17.73;14.40;;;2.50;84.70;;;0.64;82.56;96977.22;5007307;28;20030;-76
2021/04/13 04:18:28;;;;;;;15.57;13.73;;;2.40;84.70;;;0.65;83.54;96989.22;5006801;28;20568;-76
2021/04/13 04:20:54;;;;;;;14.65;12.93;;;2.50;84.80;;;0.71;83.00;96973.28;4977242;28;20042;-76
2021/04/13 04:23:29;;;;;;;16.15;14.20;;;2.70;84.30;;;0.71;83.31;96973.28;4976890;28;20493;-77
2021/04/13 04:26:00;;;;;;;15.32;13.73;;;2.70;84.10;;;0.71;83.03;96976.69;4992473;28;20509;-76
2021/04/13 04:28:40;;;;;;;15.98;14.23;;;2.60;84.10;;;0.73;83.74;96984.38;4993322;28;20037;-76
2021/04/13 04:31:35;;;;;;;15.60;13.93;;;2.60;84.20;;;0.71;83.46;96978.47;4992738;28;20080;-76
2021/04/13 04:34:13;;;;;;;16.17;13.93;;;2.50;84.20;;;0.70;83.53;96979.41;4989711;28;20040;-77
2021/04/13 04:36:50;;;;;;;16.77;14.13;;;2.50;84.60;;;0.68;83.66;96983.84;4990840;28;20122;-76
2021/04/13 04:39:36;;;;;;;16.50;14.25;;;2.50;84.40;;;0.71;83.70;96986.22;4982842;28;20034;-76
2021/04/13 04:42:12;;;;;;;16.10;14.40;;;2.60;84.10;;;0.71;83.35;96994.00;4992692;28;20042;-76
2021/04/13 04:44:38;;;;;;;16.00;13.75;;;2.60;84.10;;;0.73;82.50;96992.13;5009166;28;20038;-77
2021/04/13 04:47:38;;;;;;;15.48;13.63;;;2.60;84.00;;;0.74;83.73;96999.78;5009184;28;20065;-76
2021/04/13 04:50:09;;;;;;;16.10;14.32;;;2.60;84.00;;;0.73;82.55;96999.91;5008648;28;20118;-76
2021/04/13 04:52:35;;;;;;;;;;;2.60;84.10;;;0.73;84.01;96997.31;5009800;28;20038;-76
2021/04/13 04:55:01;;;;;;;16.52;14.60;;;2.60;83.90;;;0.75;82.50;97000.63;4992848;28;19972;-73
2021/04/13 04:57:27;;;;;;;17.33;15.07;;;2.70;83.60;;;0.75;82.65;97003.22;5009037;28;20054;-73
2021/04/13 04:59:53;;;;;;;15.85;14.25;;;2.70;83.70;;;0.80;82.73;97008.88;5007238;28;20136;-69
2021/04/13 05:02:19;;;;;;;16.70;15.00;;;2.80;83.50;;;0.81;82.58;97006.19;4989527;28;20070;-71
2021/04/13 05:04:45;;;;;;;18.13;16.23;;;2.70;83.30;;;0.83;82.23;97014.69;4990459;28;20046;-73
2021/04/13 05:07:11;;;;;;;17.33;15.50;;;2.80;83.70;;;0.87;82.56;97016.13;5008533;28;20053;-72
2021/04/13 05:09:37;;;;;;;17.63;15.70;;;2.90;83.50;;;0.94;83.13;97007.94;5008236;28;20141;-72
2021/04/13 05:12:04;;;;;;;19.38;17.05;;;3.10;83.60;;;1.00;83.04;97010.91;5008933;28;20037;-71
2021/04/13 05:14:30;;;;;;;16.27;14.68;;;3.20;83.10;;;1.03;83.11;97013.28;5008657;28;20034;-76
2021/04/13 05:16:56;;;;;;;16.05;14.43;;;3.10;82.70;;;1.08;82.86;97013.78;5024384;28;20100;-71
2021/04/13 05:19:22;;;;;;;17.08;15.32;;;3.20;82.50;;;1.11;82.64;97013.56;5007197;28;20034;-73
2021/04/13 05:21:48;;;;;;;16.75;14.93;;;3.10;82.20;;;1.16;82.55;97021.03;5007603;28;20070;-68
2021/04/13 05:24:14;;;;;;;19.02;17.02;;;3.20;82.40;;;1.21;82.66;97019.78;5009998;28;20038;-67
2021/04/13 05:26:40;;;;;;;17.27;15.50;;;3.30;82.10;;;1.25;82.27;97025.56;5016092;28;20038;-65
2021/04/13 05:29:07;;;;;;;17.20;15.48;;;3.30;81.80;;;1.31;81.91;97035.50;5021256;28;20034;-70
2021/04/13 05:31:37;;;;;;;16.10;14.50;;;3.40;82.00;;;1.37;82.27;97029.91;5004681;28;20033;-70
2021/04/13 05:34:03;;;;;;;16.20;13.80;;;3.50;81.80;;;1.41;82.09;97025.31;5002638;28;20049;-70
2021/04/13 05:36:29;;;;;;;17.67;14.73;;;3.60;81.60;;;1.47;81.91;97030.06;5012211;28;20117;-69
2021/04/13 05:38:54;;;;;;;16.88;15.23;;;3.60;81.30;;;1.53;82.01;97032.19;5007187;28;20104;-69
2021/04/13 05:41:20;;;;;;;16.50;14.90;;;3.70;81.20;;;1.59;82.32;97023.16;5007674;28;20631;-69
2021/04/13 05:43:46;;;;;;;15.80;14.30;;;3.70;81.20;;;1.64;82.39;97023.66;4991321;28;20046;-70
2021/04/13 05:46:17;;;;;;;15.55;14.05;;;3.80;80.80;;;1.73;82.02;97026.41;5010421;28;20033;-65
2021/04/13 05:48:43;;;;;;;17.88;14.35;;;4.00;80.70;;;1.80;81.86;97022.41;5024764;28;20044;-70
2021/04/13 05:51:09;;;;;;;16.77;14.25;;;4.10;80.10;;;1.86;81.54;97023.75;5010154;28;20038;-71
2021/04/13 05:53:35;;;;;;;19.05;16.65;;;4.10;80.00;;;1.92;82.28;97025.88;4987211;28;20038;-69
2021/04/13 05:56:00;;;;;;;17.35;15.40;;;4.10;80.60;;;2.01;82.14;97034.75;5005732;28;20034;-70
2021/04/13 05:58:32;;;;;;;17.75;15.88;;;4.40;80.30;;;2.08;81.81;97033.38;5020454;28;20091;-65
2021/04/13 06:01:01;;;;;;;17.60;15.80;;;4.30;79.30;;;2.13;81.67;97036.44;4991566;28;20120;-67
2021/04/13 06:03:27;;;;;;;19.95;17.58;;;4.30;79.20;;;2.18;80.85;97036.09;4990624;28;20068;-69
2021/04/13 06:05:56;;;;;;;19.67;17.58;;;4.20;79.00;;;2.16;80.63;97038.81;5006896;28;20041;-68
2021/04/13 06:08:22;;;;;;;22.95;18.80;;;4.10;79.60;;;2.15;80.21;97038.00;5007348;28;20173;-65
2021/04/13 06:10:47;;;;;;;21.48;18.35;;;4.10;79.60;;;2.19;80.35;97041.19;5012363;28;20049;-70
2021/04/13 06:13:13;;;;;;;21.77;19.38;;;4.10;79.10;;;2.21;80.71;97036.69;5007360;28;20034;-68
2021/04/13 06:15:39;;;;;;;23.48;20.13;;;4.20;78.50;;;2.23;79.47;97044.38;5006904;28;20132;-68
2021/04/13 06:18:05;;;;;;;21.60;19.35;;;4.20;78.10;;;2.23;79.42;97042.59;5016818;28;20037;-65
2021/04/13 06:20:31;;;;;;;25.42;19.98;;;4.10;78.10;;;2.22;79.66;97038.34;4990568;28;20042;-68
2021/04/13 06:22:58;;;;;;;24.63;20.75;;;4.10;78.30;;;2.22;79.58;97037.53;5006829;28;20076;-67
2021/04/13 06:25:28;;;;;;;23.58;20.67;;;4.10;78.30;;;2.23;79.56;97029.63;5006628;28;20520;-68
2021/04/13 06:27:53;;;;;;;24.35;20.70;;;4.20;78.40;;;2.27;79.67;97031.06;5006303;28;20129;-69
2021/04/13 06:30:20;;;;;;;25.00;22.23;;;4.30;78.70;;;2.33;79.62;97046.19;5007031;28;20045;-66
2021/04/13 06:32:46;;;;;;;24.83;21.33;;;4.50;78.10;;;2.37;79.52;97047.59;5022908;28;20112;-66
2021/04/13 06:35:12;;;;;;;26.70;22.38;;;4.50;77.70;;;2.43;78.81;97047.13;4997291;28;20120;-66
2021/04/13 06:37:40;;;;;;;25.80;23.05;;;4.60;76.80;;;2.47;78.88;97043.34;5000912;28;20061;-68
2021/04/13 06:40:07;;;;;;;24.30;21.60;;;4.60;76.90;;;2.53;78.68;97041.25;5003533;28;20092;-67
2021/04/13 06:43:12;;;;;;;24.45;21.48;;;4.70;76.80;;;2.62;78.73;97046.56;4971312;28;20743;-67
2021/04/13 06:46:05;;;;;;;24.42;21.23;;;4.80;77.00;;;2.68;78.37;97045.28;4986670;28;20049;-67
2021/04/13 06:48:59;;;;;;;24.02;21.10;;;4.90;76.30;;;2.79;77.81;97042.69;4988869;28;20182;-68
2021/04/13 06:51:55;;;;;;;26.60;22.88;;;5.10;75.60;;;2.87;77.51;97040.31;4988642;28;20042;-68
2021/04/13 06:54:42;;;;;;;23.50;20.50;;;5.40;74.70;;;2.98;76.86;97040.34;5001762;28;20042;-67
2021/04/13 06:57:35;;;;;;;24.30;19.70;;;5.40;73.60;;;3.07;76.85;97042.22;5003247;28;20045;-68
2021/04/13 07:00:34;;;;;;;22.48;19.42;;;5.50;73.40;;;3.13;76.75;97043.50;5005852;28;20096;-68
2021/04/13 07:03:32;;;;;;;25.58;22.27;;;5.60;73.30;;;3.24;77.03;97045.28;5022888;28;20049;-67
2021/04/13 07:06:24;;;;;;;23.17;19.85;;;5.60;73.60;;;3.31;76.16;97044.66;4986277;28;20037;-70
2021/04/13 07:09:26;;;;;;;23.50;20.50;;;5.70;72.00;;;3.41;75.74;97043.97;5000640;28;20038;-69
2021/04/13 07:12:21;;;;;;;24.65;21.60;;;5.80;71.90;;;3.54;75.64;97042.03;4962496;28;20043;-69
2021/04/13 07:15:02;;;;;;;26.27;22.63;;;6.10;72.20;;;3.64;75.78;97040.34;4997506;28;20037;-68
2021/04/13 07:17:35;;;;;;;22.55;18.00;;;6.20;71.10;;;3.75;75.44;97048.09;5006082;28;20030;-65
2021/04/13 07:20:18;;;;;;;21.92;17.50;;;6.40;69.90;;;3.83;73.78;97047.47;5005986;28;20022;-70
2021/04/13 07:22:56;;;;;;;20.02;17.48;;;6.40;68.60;;;3.91;73.83;97042.50;5007246;28;20037;-70
2021/04/13 07:25:40;;;;;;;19.75;17.13;;;6.40;68.60;;;3.96;73.21;97030.75;5006099;28;20026;-71
2021/04/13 07:28:14;;;;;;;23.85;18.15;;;6.50;67.80;;;4.07;73.03;97042.06;5006136;28;20157;-69
2021/04/13 07:30:48;;;;;;;18.63;15.77;;;6.60;67.50;;;4.11;73.31;97041.72;4991195;28;20400;-69
2021/04/13 07:33:23;;;;;;;18.52;15.60;;;6.70;68.10;;;4.16;73.12;97047.34;4982135;28;20041;-69
2021/04/13 07:35:48;;;;;;;19.25;15.60;;;6.60;67.50;;;4.20;73.93;97050.53;5004875;28;20413;-70
2021/04/13 07:38:23;;;;;;;19.73;16.83;;;6.70;66.80;;;4.28;72.24;97046.31;4985700;28;20045;-69
2021/04/13 07:40:53;;;;;;;19.48;14.88;;;6.90;67.00;;;4.34;73.30;97055.44;5002967;28;20509;-71
2021/04/13 07:43:29;;;;;;;18.30;14.23;;;6.70;65.90;;;4.39;71.54;97044.63;5012572;28;20038;-74
2021/04/13 07:46:51;;;;;;;21.42;14.80;;;6.90;66.30;;;4.46;70.79;97049.19;4977854;28;20041;-63
2021/04/13 07:49:42;;;;;;;17.95;14.30;;;7.00;65.90;;;4.48;70.49;97056.88;5001455;28;20034;-63
2021/04/13 07:52:48;;;;;;;17.20;14.30;;;7.00;65.80;;;4.56;70.43;97057.91;5016211;28;20116;-63
2021/04/13 07:55:33;;;;;;;19.70;14.65;;;7.10;64.80;;;4.65;70.61;97056.31;4991462;28;20417;-64
2021/04/13 07:58:26;;;;;;;18.30;13.98;;;7.20;64.60;;;4.76;69.87;97055.41;5007205;28;20032;-64
2021/04/13 08:00:52;;;;;;;17.27;13.65;;;7.50;63.10;;;4.86;71.21;97054.50;5009896;28;20046;-65
2021/04/13 08:03:24;;;;;;;17.63;12.68;;;7.60;62.70;;;4.97;69.70;97068.41;5009432;28;20049;-70
2021/04/13 08:05:53;;;;;;;17.15;12.80;;;7.60;62.30;;;5.04;70.33;97069.53;5008951;28;20041;-64
2021/04/13 08:08:41;;;;;;;16.38;12.82;;;7.80;61.00;;;5.16;67.73;97058.03;5009102;28;20037;-63
2021/04/13 08:11:19;;;;;;;16.70;12.73;;;7.90;61.20;;;5.26;67.84;97060.72;4977209;28;20561;-63
2021/04/13 08:13:48;;;;;;;15.55;12.15;;;8.00;61.10;;;5.30;69.21;97054.25;4989510;28;20054;-68
2021/04/13 08:16:38;;;;;;;14.25;11.18;;;8.00;60.20;;;5.38;66.65;97057.84;5007254;28;20034;-68
2021/04/13 08:19:33;;;;;;;15.07;11.10;;;8.20;59.70;;;5.53;65.87;97053.91;4987611;28;20490;-65
2021/04/13 08:22:15;;;;;;;14.02;10.82;;;8.40;58.30;;;5.68;66.50;97056.16;5008945;28;20739;-70
2021/04/13 08:24:55;;;;;;;12.15;9.93;;;8.60;58.40;;;5.85;66.58;97055.47;5009070;28;20711;-68
2021/04/13 08:27:46;;;;;;;14.00;11.60;;;9.10;56.80;;;6.14;66.27;97056.34;4979121;28;20213;-68
2021/04/13 08:30:46;;;;;;;14.38;10.48;;;9.40;56.60;;;6.53;65.65;97045.84;5008873;28;20033;-69
2021/04/13 08:33:35;;;;;;;16.80;11.40;;;10.10;55.20;;;6.91;63.88;97052.78;5008038;28;20057;-68
2021/04/13 08:36:51;;;;;;;22.58;15.30;;;10.20;52.50;;;7.11;62.27;97056.16;5008940;28;20029;-67
2021/04/13 08:39:45;;;;;;;12.35;9.68;;;10.10;52.50;;;7.04;63.16;97060.31;5015207;28;20095;-67
2021/04/13 08:42:30;;;;;;;12.10;8.40;;;9.40;54.30;;;6.98;61.64;97059.06;4999036;28;20033;-67
2021/04/13 08:45:41;;;;;;;10.00;8.35;;;9.50;53.80;;;6.98;61.33;97058.25;4988566;28;20092;-67
2021/04/13 08:48:31;;;;;;;9.90;8.35;;;9.60;53.10;;;7.22;60.83;97058.56;5010938;28;20026;-67
2021/04/13 08:51:41;;;;;;;9.88;8.05;;;10.30;51.50;;;7.50;60.68;97051.56;4988061;28;20042;-67
2021/04/13 08:54:18;;;;;;;10.77;8.18;;;10.80;50.00;;;7.79;60.71;97061.84;4975970;28;20062;-68
2021/04/13 08:57:13;;;;;;;11.65;8.30;;;11.10;50.00;;;7.88;58.83;97060.13;5003663;28;20567;-68
2021/04/13 08:59:50;;;;;;;12.30;8.82;;;10.70;49.60;;;7.92;60.62;97062.34;4995578;28;20045;-69
2021/04/13 09:02:37;;;;;;;10.52;7.38;;;10.60;49.70;;;8.01;58.44;97054.53;4991789;28;20026;-68
2021/04/13 09:05:13;;;;;;;10.35;6.90;;;11.00;48.20;;;8.18;57.26;97061.59;4987538;28;20053;-68
2021/04/13 09:07:45;;;;;;;8.80;7.60;;;11.30;45.40;;;8.35;58.63;97067.81;5018342;28;20069;-68
2021/04/13 09:11:19;;;;;;;9.45;8.00;;;11.50;46.30;;;8.47;56.99;97059.56;5008658;28;20083;-67
2021/04/13 09:14:20;;;;;;;10.30;6.38;;;11.50;47.30;;;8.39;54.34;97067.38;4998161;28;20045;-67
2021/04/13 09:17:04;;;;;;;8.10;6.57;;;10.90;43.80;;;8.43;54.35;97068.72;4989454;28;20030;-68
2021/04/13 09:19:38;;;;;;;8.57;6.55;;;11.10;44.80;;;8.47;57.02;97062.19;4986657;28;20125;-68
2021/04/13 09:22:48;;;;;;;7.57;6.50;;;11.30;43.40;;;8.69;54.32;97070.53;4990724;28;20094;-68
2021/04/13 09:25:28;;;;;;;7.57;6.13;;;11.70;43.70;;;8.96;54.25;97072.19;4986301;28;20037;-68
2021/04/13 09:28:09;;;;;;;11.57;6.53;;;12.20;43.30;;;9.19;52.36;97066.25;5007436;28;20099;-66
2021/04/13 09:30:49;;;;;;;7.18;6.10;;;12.60;41.40;;;9.45;52.24;97062.75;4960459;28;20042;-67
2021/04/13 09:33:21;;;;;;;8.17;6.53;;;13.00;40.70;;;9.69;52.47;97062.00;5000607;28;20125;-67
2021/04/13 09:36:27;;;;;;;7.43;5.85;;;13.30;39.40;;;9.87;51.28;97069.78;5007745;28;20735;-66
2021/04/13 09:39:41;;;;;;;8.02;5.93;;;13.10;39.50;;;10.02;50.84;97065.56;5032119;28;20119;-67
2021/04/13 09:42:49;;;;;;;8.52;5.78;;;13.30;40.30;;;10.13;48.96;97057.34;4998902;28;20354;-66
2021/04/13 09:45:53;;;;;;;6.72;5.97;;;13.20;38.70;;;10.13;49.94;97054.72;4990295;28;20483;-73
2021/04/13 09:48:53;;;;;;;8.13;6.22;;;12.90;39.30;;;10.17;48.98;97056.03;5002362;28;20033;-69
2021/04/13 09:51:46;;;;;;;8.07;6.28;;;12.80;40.40;;;10.37;49.40;97052.13;5013926;28;20042;-68
2021/04/13 09:54:27;;;;;;;6.60;5.85;;;13.50;39.00;;;10.35;47.82;97051.47;5027558;28;20056;-69
2021/04/13 09:57:11;;;;;;;10.82;8.05;;;12.90;38.00;;;10.31;53.84;97049.34;5011488;28;20040;-65
2021/04/13 09:59:51;;;;;;;6.78;5.55;;;12.90;40.20;;;10.29;49.34;97046.06;4989112;28;20030;-64
2021/04/13 10:02:45;;;;;;;7.57;5.65;;;12.90;38.70;;;10.15;48.11;97039.59;5016121;28;20178;-69
2021/04/13 10:05:16;;;;;;;10.27;6.00;;;12.60;38.40;;;10.05;50.23;97038.94;4987754;28;20100;-70
2021/04/13 10:08:19;;;;;;;7.30;5.80;;;12.50;38.70;;;10.14;48.60;97045.84;4990360;28;20041;-73
2021/04/13 10:11:10;;;;;;;6.28;5.15;;;13.20;39.40;;;10.41;46.85;97037.69;4986390;28;20045;-67
2021/04/13 10:14:03;;;;;;;3.90;3.47;;;13.50;36.70;;;10.42;45.75;97041.97;5007718;28;20065;-70
2021/04/13 10:16:45;;;;;;;5.38;4.47;;;13.20;36.60;;;10.35;47.20;97033.06;5007754;28;20084;-68
2021/04/13 10:19:45;;;;;;;6.00;4.97;;;13.00;37.00;;;10.36;46.93;97032.09;4991580;28;20034;-69
2021/04/13 10:23:04;;;;;;;7.80;5.60;;;13.30;37.30;;;10.46;44.47;97028.47;4990481;28;20501;-67
2021/04/13 10:26:29;;;;;;;5.30;4.13;;;13.60;36.00;;;10.66;44.41;97021.88;4988423;28;20310;-68
2021/04/13 10:29:52;;;;;;;4.70;3.60;;;14.20;34.10;;;10.74;43.14;97029.75;4988274;28;20518;-72
2021/04/13 10:32:33;;;;;;;5.18;3.95;;;13.60;33.10;;;10.72;44.15;97026.47;5016376;28;20046;-72
2021/04/13 10:35:25;;;;;;;4.97;3.70;;;13.30;34.30;;;10.69;42.52;97021.56;5005695;28;20069;-68
2021/04/13 10:38:21;;;;;;;4.28;3.60;;;13.40;35.60;;;10.74;43.21;97008.72;5004294;28;20048;-67
2021/04/13 10:41:24;;;;;;;4.47;3.17;;;14.10;34.30;;;11.02;43.41;97004.69;5007699;28;20037;-67
2021/04/13 10:44:27;;;;;;;3.78;2.92;;;14.80;32.80;;;11.30;41.86;97004.25;5016895;28;20033;-66
2021/04/13 10:47:03;;;;;;;4.53;3.13;;;15.30;31.60;;;11.61;42.58;96997.19;5007440;28;20145;-69
2021/04/13 10:50:07;;;;;;;3.85;3.13;;;15.90;30.60;;;11.76;42.14;96994.63;5006687;28;20092;-68
2021/04/13 10:53:42;;;;;;;3.55;2.50;;;15.30;31.00;;;11.66;40.31;97000.13;5006930;28;20034;-68
2021/04/13 10:57:03;;;;;;;4.35;3.17;;;14.70;30.60;;;11.51;40.45;96996.56;5002328;28;20074;-68
2021/04/13 11:00:00;;;;;;;3.13;2.28;;;14.10;31.30;;;11.36;41.24;96993.06;5001397;28;20034;-67
2021/04/13 11:02:58;;;;;;;5.30;2.70;;;13.80;31.70;;;11.17;40.32;96993.47;5014077;28;20064;-69
2021/04/13 11:05:49;;;;;;;4.15;3.03;;;13.40;32.20;;;10.97;41.16;97001.75;4981560;28;20120;-68
2021/04/13 11:09:23;;;;;;;3.08;2.28;;;13.20;34.70;;;10.59;40.49;96998.03;5016388;28;20121;-70
2021/04/13 11:12:29;;;;;;;2.05;1.83;;;12.60;34.80;;;10.22;41.81;96998.56;5002438;28;20062;-69
2021/04/13 11:15:26;;;;;;;3.17;2.10;;;12.30;34.50;;;10.09;42.05;97003.47;4994365;28;20094;-69